Aérodrome :
LOGIN :

S'inscrire | Disclaimer

   EN    FR    IT 

 










Légende :    VFR   VFR Marginal   IFR   IFR Intensif   IFR Très Intensif
Visi : 
Plafond : 
>= 8 km
>= 3000ft
5 à 8 km
1000 à 3000 ft
1500m à 5 km
500 à 1000 ft
800 à 1500m
200 à 500 ft
< 800m
< 200 ft
Symboles :   Orages  Brouillard  Fortes neiges  Fortes précipitations  Vent > 20 kt
SIGMETs :   Divers  Orages  Givrage  Turbulence  Onde Orograph.  Cendres Volcan.







- Altitude de l'aérodrome : 37 ft
- Code IATA : FRO


ENFL - Florø

DERNIER METAR :
  • 181620Z AUTO 22032KT 9999NDV -SHRA FEW002/// SCT015/// OVC041/// 14/11 Q1001

METARs EXPIRÉS :
  • 181450Z 22022G32KT 9999 FEW015 SCT020TCU BKN030 14/11 Q1000
  • 181420Z 22023G33KT 9999 VCSH FEW012 SCT018TCU BKN025 14/11 Q1000
  • 181350Z 22027KT 9999 -RA FEW012 SCT018CB BKN030 13/12 Q1000 RETS

Prévision TAF périmée.
Pas de NOTAMs connus pour ce terrain.
5 SIGMETs publiés pour la FIR Norway (ENOR) :
 
Turbulence forte
ENSV SIGMET B01 VALID 181700/182100 ENVV
ENOR NORWAY FIR SEV TURB FCST WI N6200 E00535 - N6200 E00730 - N5845 E00730 - N5950 E00620 - N6200 E00535 SFC/FL180 MOV E 15KT WKN=
Annulation du SIGMET A0
ENOS SIGMET A03 VALID 181304/181900 ENMI
ENOR NORWAY FIR CNL SIGMET A01 181500/181900=
Turbulence forte
ENOS SIGMET A02 VALID 181300/181700 ENMI
ENOR NORWAY FIR SEV TURB FCST WI N5910 E01000 - N5900 E00730 - N6200 E00730 - N6200 E01000 - N5910 E01000 SFC/FL150 STNR NC=
Turbulence forte
ENOS SIGMET A01 VALID 181500/181900 ENMI
ENOR NORWAY FIR SEV TURB FCST WI N5830 E01030 - N5700 E00730 - N6200 E00730 - N6200 E01225 - N6115 E01300 - N5900 E01210 - N5830 E01030 SFC/FL150 STNR NC=
Turbulence forte
ENBD SIGMET C01 VALID 181700/182100 ENVV
ENOR NORWAY FIR SEV TURB FCST WI N6200 E00535 - N6330 E00900 - N6200 E00900 - N6200 E00535 SFC/FL180 MOV E 15KT WKN=



MET'MAP, la Météo Aéronautique d'un coup d'oeil ! - Copyright ORBIFLY Décembre 2007 - Disclaimer

ORBIFLY MET'MAP TEAM :

Programmation & Développement : Alexandra Zaïnal
Conception & Développement : Baudouin d'Aumeries
Co-Programmation & Développement : Marc-Olivier Méhu
Soutien technique & logistique : Manuel Goepfert

Contact : metmap@orbifly.com




SOURCES & CREDITS :

   NOAA